McEwensville, Pennsylvania
Current Conditions -  °F | °C
As of 2:42 AM on Wednesday 22 Oct 2014 (Local Time) from KIPT Reporting Station
Overcast Overcast  
Wind Chill: 54°   Ceiling: 2500
Heat Index: 54°   Visibility: 10mi
Dew Point: 45°   Wind: 6mph
Humidity: 72%   Direction: 310°NW
Pressure: 29.95"   Gusts: NA
Location:  41.07°N, 76.82°W
Report Text: KIPT 220642Z AUTO 31005KT 10SM BKN025 OVC070 12/07 A2995 RMK AO2 T01220072
Loading
Personal Weather Stations






























Interactive Weather Map
Tropical Storm Tracking
New forecast layout! Learn more

10-Day Weather Forecast

Advertisements
Track Severe Weather on mobile